createdAt,value
2016-08-25T00:00:39.479Z,969.27
2016-08-25T00:01:39.446Z,969.33
2016-08-25T00:02:39.416Z,969.25
2016-08-25T00:03:39.386Z,969.24
2016-08-25T00:04:39.358Z,969.28
2016-08-25T00:05:39.325Z,969.34
2016-08-25T00:06:39.292Z,969.32
2016-08-25T00:07:39.263Z,969.28
2016-08-25T00:08:39.235Z,969.25
2016-08-25T00:09:39.202Z,969.27
2016-08-25T00:10:39.172Z,969.3
2016-08-25T00:11:39.141Z,969.3
2016-08-25T00:12:39.109Z,969.31
2016-08-25T00:13:39.079Z,969.29
2016-08-25T00:14:39.046Z,969.27
2016-08-25T00:15:39.016Z,969.28
2016-08-25T00:16:38.984Z,969.28
2016-08-25T00:17:38.953Z,969.31
2016-08-25T00:18:38.924Z,969.32
2016-08-25T00:19:38.893Z,969.29
2016-08-25T00:20:38.861Z,969.31
2016-08-25T00:21:38.830Z,969.32
2016-08-25T00:22:38.798Z,969.29
2016-08-25T00:23:38.768Z,969.29
2016-08-25T00:24:38.736Z,969.33
2016-08-25T00:25:38.705Z,969.29
2016-08-25T00:26:38.677Z,969.32
2016-08-25T00:27:38.644Z,969.26
2016-08-25T00:28:38.612Z,969.31
2016-08-25T00:29:38.582Z,969.28
2016-08-25T00:30:38.553Z,969.26
2016-08-25T00:31:38.522Z,969.26
2016-08-25T00:32:38.490Z,969.25
2016-08-25T00:33:38.458Z,969.21
2016-08-25T00:34:38.428Z,969.25
2016-08-25T00:35:38.395Z,969.25
2016-08-25T00:36:38.364Z,969.23
2016-08-25T00:37:38.337Z,969.22
2016-08-25T00:38:38.303Z,969.21
2016-08-25T00:39:38.271Z,969.21
2016-08-25T00:40:38.239Z,969.24
2016-08-25T00:41:38.208Z,969.21
2016-08-25T00:42:38.178Z,969.24
2016-08-25T00:43:38.147Z,969.28
2016-08-25T00:44:38.116Z,969.25
2016-08-25T00:45:38.083Z,969.28
2016-08-25T00:46:38.053Z,969.22
2016-08-25T00:47:38.021Z,969.25
2016-08-25T00:48:37.989Z,969.24
2016-08-25T00:49:37.958Z,969.26
2016-08-25T00:50:37.927Z,969.25
2016-08-25T00:51:37.904Z,969.26
2016-08-25T00:52:37.864Z,969.27
2016-08-25T00:53:37.837Z,969.26
2016-08-25T00:54:37.800Z,969.24
2016-08-25T00:55:37.769Z,969.22
2016-08-25T00:56:37.739Z,969.2
2016-08-25T00:57:37.708Z,969.22
2016-08-25T00:58:37.676Z,969.2
2016-08-25T00:59:37.643Z,969.19
2016-08-25T01:00:37.612Z,969.19
2016-08-25T01:01:37.583Z,969.2
2016-08-25T01:02:37.555Z,969.2
2016-08-25T01:03:37.520Z,969.2
2016-08-25T01:04:37.487Z,969.22
2016-08-25T01:05:37.457Z,969.21
2016-08-25T01:06:37.424Z,969.18
2016-08-25T01:07:37.391Z,969.16
2016-08-25T01:08:37.360Z,969.19
2016-08-25T01:09:37.330Z,969.19
2016-08-25T01:10:37.300Z,969.21
2016-08-25T01:11:37.266Z,969.15
2016-08-25T01:12:37.237Z,969.21
2016-08-25T01:13:37.204Z,969.17
2016-08-25T01:14:37.170Z,969.17
2016-08-25T01:15:37.141Z,969.16
2016-08-25T01:16:37.109Z,969.17
2016-08-25T01:17:37.077Z,969.2
2016-08-25T01:18:37.044Z,969.17
2016-08-25T01:19:37.013Z,969.18
2016-08-25T01:20:36.982Z,969.19
2016-08-25T01:21:36.949Z,969.2
2016-08-25T01:22:36.917Z,969.18
2016-08-25T01:23:36.886Z,969.2
2016-08-25T01:24:36.858Z,969.18
2016-08-25T01:25:36.822Z,969.27
2016-08-25T01:26:36.792Z,969.2
2016-08-25T01:27:36.761Z,969.25
2016-08-25T01:28:36.730Z,969.25
2016-08-25T01:29:36.697Z,969.21
2016-08-25T01:30:36.664Z,969.23
2016-08-25T01:31:36.634Z,969.2
2016-08-25T01:32:36.601Z,969.2
2016-08-25T01:33:36.569Z,969.2
2016-08-25T01:34:36.537Z,969.21
2016-08-25T01:35:36.506Z,969.21
2016-08-25T01:36:36.477Z,969.19
2016-08-25T01:37:36.442Z,969.2
2016-08-25T01:38:36.409Z,969.24
2016-08-25T01:39:36.380Z,969.24
2016-08-25T01:40:36.344Z,969.25
2016-08-25T01:41:36.314Z,969.24
2016-08-25T01:42:36.285Z,969.21
2016-08-25T01:43:36.253Z,969.23
2016-08-25T01:44:36.219Z,969.2
2016-08-25T01:45:36.187Z,969.16
2016-08-25T01:46:36.154Z,969.18
2016-08-25T01:47:36.123Z,969.13
2016-08-25T01:48:36.092Z,969.14
2016-08-25T01:49:36.061Z,969.16
2016-08-25T01:50:36.028Z,969.14
2016-08-25T01:51:35.995Z,969.15
2016-08-25T01:52:35.964Z,969.13
2016-08-25T01:53:35.934Z,969.15
2016-08-25T01:54:35.901Z,969.15
2016-08-25T01:55:35.867Z,969.16
2016-08-25T01:56:35.838Z,969.09
2016-08-25T01:57:35.805Z,969.11
2016-08-25T01:58:35.773Z,969.13
2016-08-25T01:59:35.742Z,969.1
2016-08-25T02:00:35.708Z,969.13
2016-08-25T02:01:35.677Z,969.08
2016-08-25T02:02:35.644Z,969.09
2016-08-25T02:03:35.613Z,969.09
2016-08-25T02:04:35.582Z,969.13
2016-08-25T02:05:35.549Z,969.16
2016-08-25T02:06:35.518Z,969.17
2016-08-25T02:07:35.485Z,969.18
2016-08-25T02:08:35.453Z,969.17
2016-08-25T02:09:35.422Z,969.19
2016-08-25T02:10:35.395Z,969.17
2016-08-25T02:11:35.357Z,969.16
2016-08-25T02:12:35.325Z,969.16
2016-08-25T02:13:35.292Z,969.16
2016-08-25T02:14:35.263Z,969.17
2016-08-25T02:15:35.231Z,969.21
2016-08-25T02:16:35.197Z,969.16
2016-08-25T02:17:35.166Z,969.22
2016-08-25T02:18:35.133Z,969.22
2016-08-25T02:19:35.101Z,969.21
2016-08-25T02:20:35.069Z,969.2
2016-08-25T02:21:35.036Z,969.2
2016-08-25T02:22:35.005Z,969.16
2016-08-25T02:23:34.975Z,969.2
2016-08-25T02:24:34.939Z,969.17
2016-08-25T02:25:34.909Z,969.18
2016-08-25T02:26:34.876Z,969.18
2016-08-25T02:27:34.843Z,969.19
2016-08-25T02:28:34.811Z,969.19
2016-08-25T02:29:34.779Z,969.16
2016-08-25T02:30:34.754Z,969.15
2016-08-25T02:31:34.715Z,969.16
2016-08-25T02:32:34.682Z,969.15
2016-08-25T02:33:34.663Z,969.14
2016-08-25T02:34:34.620Z,969.15
2016-08-25T02:35:34.586Z,969.11
2016-08-25T02:36:34.555Z,969.11
2016-08-25T02:37:34.524Z,969.08
2016-08-25T02:38:34.490Z,969.11
2016-08-25T02:39:34.457Z,969.09
2016-08-25T02:40:34.426Z,969.08
2016-08-25T02:41:34.393Z,969.09
2016-08-25T02:42:34.361Z,969.07
2016-08-25T02:43:34.329Z,969.07
2016-08-25T02:44:34.297Z,969.12
2016-08-25T02:45:34.265Z,969.08
2016-08-25T02:46:34.231Z,969.12
2016-08-25T02:47:34.200Z,969.12
2016-08-25T02:48:34.169Z,969.05
2016-08-25T02:49:34.133Z,969.07
2016-08-25T02:50:34.103Z,969.09
2016-08-25T02:51:34.071Z,969.08
2016-08-25T02:52:34.038Z,969.11
2016-08-25T02:53:34.005Z,969.05
2016-08-25T02:54:33.973Z,969.07
2016-08-25T02:55:33.943Z,969.04
2016-08-25T02:56:33.910Z,969.02
2016-08-25T02:57:33.877Z,969.04
2016-08-25T02:58:33.845Z,969.02
2016-08-25T02:59:33.812Z,969.02
2016-08-25T03:00:33.779Z,969.04
2016-08-25T03:01:33.756Z,969.01
2016-08-25T03:02:33.714Z,969
2016-08-25T03:03:33.682Z,969.01
2016-08-25T03:04:33.649Z,969.01
2016-08-25T03:05:33.616Z,968.99
2016-08-25T03:06:33.585Z,968.98
2016-08-25T03:07:33.553Z,969.01
2016-08-25T03:08:33.522Z,969.03
2016-08-25T03:09:33.489Z,969.01
2016-08-25T03:10:33.456Z,969
2016-08-25T03:11:33.421Z,968.99
2016-08-25T03:12:33.394Z,969.01
2016-08-25T03:13:33.361Z,969.06
2016-08-25T03:14:33.326Z,968.97
2016-08-25T03:15:33.292Z,969.01
2016-08-25T03:16:33.261Z,969
2016-08-25T03:17:33.227Z,969
2016-08-25T03:18:33.205Z,968.97
2016-08-25T03:19:33.162Z,969
2016-08-25T03:20:33.131Z,969
2016-08-25T03:21:33.100Z,969.02
2016-08-25T03:22:33.066Z,969.04
2016-08-25T03:23:33.034Z,969.02
2016-08-25T03:24:33.000Z,969.06
2016-08-25T03:25:32.968Z,969.02
2016-08-25T03:26:32.935Z,969.02
2016-08-25T03:27:32.903Z,969.07
2016-08-25T03:28:32.868Z,969.05
2016-08-25T03:29:32.837Z,969.02
2016-08-25T03:30:32.803Z,969.06
2016-08-25T03:31:32.771Z,969.02
2016-08-25T03:32:32.742Z,968.99
2016-08-25T03:33:32.706Z,968.97
2016-08-25T03:34:32.674Z,969.02
2016-08-25T03:35:32.642Z,969.01
2016-08-25T03:36:32.608Z,968.99
2016-08-25T03:37:32.576Z,968.99
2016-08-25T03:38:32.546Z,968.99
2016-08-25T03:39:32.511Z,968.97
2016-08-25T03:40:32.478Z,968.98
2016-08-25T03:41:32.447Z,968.97
2016-08-25T03:42:32.413Z,969.02
2016-08-25T03:43:32.381Z,969.02
2016-08-25T03:44:32.349Z,969.01
2016-08-25T03:45:32.316Z,968.99
2016-08-25T03:46:32.283Z,969.02
2016-08-25T03:47:32.250Z,968.99
2016-08-25T03:48:32.218Z,969.02
2016-08-25T03:49:32.185Z,969.01
2016-08-25T03:50:32.152Z,968.97
2016-08-25T03:51:32.120Z,969.03
2016-08-25T03:52:32.087Z,968.99
2016-08-25T03:53:32.055Z,969.05
2016-08-25T03:54:32.022Z,969.05
2016-08-25T03:55:31.987Z,969.1
2016-08-25T03:56:31.968Z,969.07
2016-08-25T03:57:31.923Z,969.08
2016-08-25T03:58:31.890Z,969.1
2016-08-25T03:59:31.859Z,969.1
2016-08-25T04:00:31.825Z,969.1
2016-08-25T04:01:31.792Z,969.14
2016-08-25T04:02:31.759Z,969.13
2016-08-25T04:03:31.725Z,969.08
2016-08-25T04:04:31.692Z,969.12
2016-08-25T04:05:31.662Z,969.09
2016-08-25T04:06:31.627Z,969.09
2016-08-25T04:07:31.594Z,969.1
2016-08-25T04:08:31.564Z,969.12
2016-08-25T04:09:31.529Z,969.12
2016-08-25T04:10:31.496Z,969.1
2016-08-25T04:11:31.465Z,969.11
2016-08-25T04:12:31.431Z,969.12
2016-08-25T04:13:31.399Z,969.16
2016-08-25T04:14:31.365Z,969.16
2016-08-25T04:15:31.332Z,969.17
2016-08-25T04:16:31.301Z,969.18
2016-08-25T04:17:31.269Z,969.17
2016-08-25T04:18:31.235Z,969.22
2016-08-25T04:19:31.202Z,969.23
2016-08-25T04:20:31.168Z,969.28
2016-08-25T04:21:31.135Z,969.27
2016-08-25T04:22:31.103Z,969.29
2016-08-25T04:23:31.070Z,969.35
2016-08-25T04:24:31.039Z,969.3
2016-08-25T04:25:31.004Z,969.36
2016-08-25T04:26:30.970Z,969.36
2016-08-25T04:27:30.938Z,969.33
2016-08-25T04:28:30.904Z,969.4
2016-08-25T04:29:30.873Z,969.36
2016-08-25T04:30:30.839Z,969.33
2016-08-25T04:31:30.808Z,969.34
2016-08-25T04:32:30.774Z,969.37
2016-08-25T04:33:30.740Z,969.35
2016-08-25T04:34:30.709Z,969.42
2016-08-25T04:35:30.675Z,969.34
2016-08-25T04:36:30.642Z,969.38
2016-08-25T04:37:30.613Z,969.36
2016-08-25T04:38:30.579Z,969.42
2016-08-25T04:39:30.543Z,969.39
2016-08-25T04:40:30.510Z,969.38
2016-08-25T04:41:30.479Z,969.36
2016-08-25T04:42:30.446Z,969.31
2016-08-25T04:43:30.413Z,969.38
2016-08-25T04:44:30.379Z,969.38
2016-08-25T04:45:30.348Z,969.34
2016-08-25T04:46:30.314Z,969.39
2016-08-25T04:47:30.279Z,969.36
2016-08-25T04:48:30.247Z,969.4
2016-08-25T04:49:30.214Z,969.46
2016-08-25T04:50:30.180Z,969.43
2016-08-25T04:51:30.149Z,969.44
2016-08-25T04:52:30.117Z,969.44
2016-08-25T04:53:30.086Z,969.48
2016-08-25T04:54:30.049Z,969.49
2016-08-25T04:55:30.018Z,969.49
2016-08-25T04:56:29.985Z,969.52
2016-08-25T04:57:29.949Z,969.55
2016-08-25T04:58:29.917Z,969.52
2016-08-25T04:59:29.886Z,969.54
2016-08-25T05:00:29.854Z,969.55
2016-08-25T05:01:29.818Z,969.55
2016-08-25T05:02:29.787Z,969.57
2016-08-25T05:03:29.754Z,969.56
2016-08-25T05:04:29.722Z,969.54
2016-08-25T05:05:29.688Z,969.55
2016-08-25T05:06:29.655Z,969.52
2016-08-25T05:07:29.627Z,969.52
2016-08-25T05:08:29.593Z,969.57
2016-08-25T05:09:29.566Z,969.6
2016-08-25T05:10:29.528Z,969.62
2016-08-25T05:11:29.495Z,969.6
2016-08-25T05:12:29.461Z,969.66
2016-08-25T05:13:29.429Z,969.64
2016-08-25T05:14:29.396Z,969.64
2016-08-25T05:15:29.365Z,969.64
2016-08-25T05:16:29.331Z,969.65
2016-08-25T05:17:29.301Z,969.68
2016-08-25T05:18:29.268Z,969.7
2016-08-25T05:19:29.236Z,969.71
2016-08-25T05:20:29.204Z,969.7
2016-08-25T05:21:29.173Z,969.77
2016-08-25T05:22:29.142Z,969.74
2016-08-25T05:23:29.110Z,969.79
2016-08-25T05:24:29.079Z,969.79
2016-08-25T05:25:29.047Z,969.83
2016-08-25T05:26:29.018Z,969.82
2016-08-25T05:27:28.988Z,969.84
2016-08-25T05:28:28.959Z,969.87
2016-08-25T05:29:28.928Z,969.86
2016-08-25T05:30:28.898Z,969.89
2016-08-25T05:31:28.881Z,969.88
2016-08-25T05:32:28.839Z,969.85
2016-08-25T05:33:28.810Z,969.88
2016-08-25T05:34:28.782Z,969.87
2016-08-25T05:35:28.755Z,969.84
2016-08-25T05:36:28.725Z,969.84
2016-08-25T05:37:28.696Z,969.86
2016-08-25T05:38:28.671Z,969.88
2016-08-25T05:39:28.640Z,969.84
2016-08-25T05:40:28.612Z,969.86
2016-08-25T05:41:28.586Z,969.86
2016-08-25T05:42:28.560Z,969.9
2016-08-25T05:43:28.531Z,969.9
2016-08-25T05:44:28.504Z,969.89
2016-08-25T05:45:28.476Z,969.92
2016-08-25T05:46:28.449Z,969.92
2016-08-25T05:47:28.425Z,969.98
2016-08-25T05:48:28.397Z,969.96
2016-08-25T05:49:28.374Z,969.96
2016-08-25T05:50:28.346Z,969.98
2016-08-25T05:51:28.321Z,969.93
2016-08-25T05:52:28.292Z,969.96
2016-08-25T05:53:28.268Z,969.99
2016-08-25T05:54:28.244Z,969.95
2016-08-25T05:55:28.219Z,970.02
2016-08-25T05:56:28.191Z,970.01
2016-08-25T05:57:28.167Z,970.02
2016-08-25T05:58:28.142Z,969.99
2016-08-25T05:59:28.116Z,970.04
2016-08-25T06:00:28.095Z,970.06
2016-08-25T06:01:28.068Z,970.1
2016-08-25T06:02:28.045Z,970.1
2016-08-25T06:03:28.022Z,970.09
2016-08-25T06:04:27.996Z,970.15
2016-08-25T06:05:27.973Z,970.21
2016-08-25T06:06:27.956Z,970.24
2016-08-25T06:07:27.925Z,970.25
2016-08-25T06:08:27.902Z,970.25
2016-08-25T06:09:27.878Z,970.27
2016-08-25T06:10:27.853Z,970.28
2016-08-25T06:11:27.831Z,970.26
2016-08-25T06:12:27.807Z,970.26
2016-08-25T06:13:27.787Z,970.24
2016-08-25T06:14:27.760Z,970.23
2016-08-25T06:15:27.742Z,970.25
2016-08-25T06:16:27.718Z,970.26
2016-08-25T06:17:27.693Z,970.25
2016-08-25T06:18:27.669Z,970.25
2016-08-25T06:19:27.648Z,970.26
2016-08-25T06:20:27.626Z,970.25
2016-08-25T06:21:27.603Z,970.27
2016-08-25T06:22:27.582Z,970.26
2016-08-25T06:23:27.560Z,970.29
2016-08-25T06:24:27.537Z,970.31
2016-08-25T06:25:27.515Z,970.27
2016-08-25T06:26:27.493Z,970.31
2016-08-25T06:27:27.471Z,970.33
2016-08-25T06:28:27.451Z,970.34
2016-08-25T06:29:27.428Z,970.32
2016-08-25T06:30:27.406Z,970.34
2016-08-25T06:31:27.386Z,970.33
2016-08-25T06:32:27.365Z,970.34
2016-08-25T06:33:27.344Z,970.3
2016-08-25T06:34:27.323Z,970.32
2016-08-25T06:35:27.303Z,970.31
2016-08-25T06:36:27.279Z,970.3
2016-08-25T06:37:27.260Z,970.27
2016-08-25T06:38:27.239Z,970.31
2016-08-25T06:39:27.218Z,970.33
2016-08-25T06:40:27.199Z,970.31
2016-08-25T06:41:27.178Z,970.29
2016-08-25T06:42:27.158Z,970.31
2016-08-25T06:43:27.138Z,970.32
2016-08-25T06:44:27.123Z,970.31
2016-08-25T06:45:27.096Z,970.29
2016-08-25T06:46:27.079Z,970.29
2016-08-25T06:47:27.054Z,970.29
2016-08-25T06:48:27.035Z,970.28
2016-08-25T06:49:27.018Z,970.27
2016-08-25T06:50:26.998Z,970.29
2016-08-25T06:51:26.975Z,970.33
2016-08-25T06:52:26.957Z,970.3
2016-08-25T06:53:26.936Z,970.3
2016-08-25T06:54:26.917Z,970.29
2016-08-25T06:55:26.898Z,970.29
2016-08-25T06:56:26.879Z,970.28
2016-08-25T06:57:26.860Z,970.31
2016-08-25T06:58:26.839Z,970.33
2016-08-25T06:59:26.819Z,970.34
2016-08-25T07:00:26.799Z,970.3
2016-08-25T07:01:26.781Z,970.31
2016-08-25T07:02:26.760Z,970.32
2016-08-25T07:03:26.744Z,970.34
2016-08-25T07:04:26.724Z,970.32
2016-08-25T07:05:26.703Z,970.35
2016-08-25T07:06:26.684Z,970.32
2016-08-25T07:07:26.666Z,970.34
2016-08-25T07:08:26.646Z,970.35
2016-08-25T07:09:26.627Z,970.34
2016-08-25T07:10:26.608Z,970.26
2016-08-25T07:11:26.590Z,970.33
2016-08-25T07:12:26.569Z,970.34
2016-08-25T07:13:26.555Z,970.4
2016-08-25T07:14:26.534Z,970.37
2016-08-25T07:15:26.514Z,970.4
2016-08-25T07:16:26.494Z,970.39
2016-08-25T07:17:26.481Z,970.43
2016-08-25T07:18:26.461Z,970.43
2016-08-25T07:19:26.441Z,970.43
2016-08-25T07:20:26.421Z,970.39
2016-08-25T07:21:26.403Z,970.37
2016-08-25T07:22:26.386Z,970.41
2016-08-25T07:23:26.367Z,970.41
2016-08-25T07:24:26.349Z,970.38
2016-08-25T07:25:26.330Z,970.36
2016-08-25T07:26:26.313Z,970.36
2016-08-25T07:27:26.294Z,970.31
2016-08-25T07:28:26.276Z,970.34
2016-08-25T07:29:26.259Z,970.36
2016-08-25T07:30:26.241Z,970.34
2016-08-25T07:31:26.222Z,970.32
2016-08-25T07:32:26.207Z,970.33
2016-08-25T07:33:26.190Z,970.38
2016-08-25T07:34:26.170Z,970.38
2016-08-25T07:35:26.153Z,970.36
2016-08-25T07:36:26.136Z,970.33
2016-08-25T07:37:26.119Z,970.34
2016-08-25T07:38:26.099Z,970.38
2016-08-25T07:39:26.084Z,970.35
2016-08-25T07:40:26.066Z,970.33
2016-08-25T07:41:26.047Z,970.34
2016-08-25T07:42:26.031Z,970.37
2016-08-25T07:43:26.015Z,970.35
2016-08-25T07:44:25.997Z,970.39
2016-08-25T07:45:25.978Z,970.39
2016-08-25T07:46:25.962Z,970.41
2016-08-25T07:47:25.945Z,970.39
2016-08-25T07:48:25.930Z,970.37
2016-08-25T07:49:25.908Z,970.32
2016-08-25T07:50:25.893Z,970.39
2016-08-25T07:51:25.875Z,970.35
2016-08-25T07:52:25.858Z,970.34
2016-08-25T07:53:25.840Z,970.37
2016-08-25T07:54:25.825Z,970.4
2016-08-25T07:55:25.807Z,970.42
2016-08-25T07:56:25.790Z,970.39
2016-08-25T07:57:25.785Z,970.48
2016-08-25T07:58:25.756Z,970.52
2016-08-25T07:59:25.739Z,970.49
2016-08-25T08:00:25.725Z,970.48
2016-08-25T08:01:25.708Z,970.56
2016-08-25T08:02:25.691Z,970.6
2016-08-25T08:03:25.674Z,970.61
2016-08-25T08:04:25.658Z,970.62
2016-08-25T08:05:25.643Z,970.64
2016-08-25T08:06:25.626Z,970.64
2016-08-25T08:07:25.609Z,970.66
2016-08-25T08:08:25.595Z,970.63
2016-08-25T08:09:25.578Z,970.66
2016-08-25T08:10:25.566Z,970.7
2016-08-25T08:11:25.550Z,970.73
2016-08-25T08:12:25.533Z,970.76
2016-08-25T08:13:25.517Z,970.8
2016-08-25T08:14:25.503Z,970.82
2016-08-25T08:15:25.485Z,970.88
2016-08-25T08:16:25.470Z,970.91
2016-08-25T08:17:25.456Z,970.9
2016-08-25T08:18:25.441Z,970.92
2016-08-25T08:19:25.426Z,970.92
2016-08-25T08:20:25.415Z,970.95
2016-08-25T08:21:25.395Z,970.97
2016-08-25T08:22:25.382Z,970.96
2016-08-25T08:23:25.366Z,970.98
2016-08-25T08:24:25.350Z,970.96
2016-08-25T08:25:25.335Z,971
2016-08-25T08:26:25.321Z,970.99
2016-08-25T08:27:25.306Z,970.98
2016-08-25T08:28:25.292Z,971.01
2016-08-25T08:29:25.278Z,971.01
2016-08-25T08:30:25.263Z,971.01
2016-08-25T08:31:25.248Z,971.01
2016-08-25T08:32:25.234Z,971.01
2016-08-25T08:33:25.224Z,971.06
2016-08-25T08:34:25.204Z,971.06
2016-08-25T08:35:25.191Z,971.08
2016-08-25T08:36:25.174Z,971.12
2016-08-25T08:37:25.161Z,971.1
2016-08-25T08:38:25.148Z,971.16
2016-08-25T08:39:25.132Z,971.19
2016-08-25T08:40:25.119Z,971.24
2016-08-25T08:41:25.105Z,971.24
2016-08-25T08:42:25.092Z,971.24
2016-08-25T08:43:25.078Z,971.24
2016-08-25T08:44:25.064Z,971.23
2016-08-25T08:45:25.052Z,971.24
2016-08-25T08:46:25.039Z,971.24
2016-08-25T08:47:25.025Z,971.25
2016-08-25T08:48:25.012Z,971.28
2016-08-25T08:49:24.999Z,971.25
2016-08-25T08:50:24.988Z,971.27
2016-08-25T08:51:24.972Z,971.26
2016-08-25T08:52:24.958Z,971.27
2016-08-25T08:53:24.952Z,971.28
2016-08-25T08:54:24.934Z,971.28
2016-08-25T08:55:24.919Z,971.3
2016-08-25T08:56:24.907Z,971.29
2016-08-25T08:57:24.899Z,971.24
2016-08-25T08:58:24.880Z,971.2
2016-08-25T08:59:24.867Z,971.21
2016-08-25T09:00:24.854Z,971.22
2016-08-25T09:01:24.841Z,971.2
2016-08-25T09:02:24.827Z,971.19
2016-08-25T09:03:24.814Z,971.18
2016-08-25T09:04:24.813Z,971.13
2016-08-25T09:05:24.789Z,971.14
2016-08-25T09:06:24.774Z,971.16
2016-08-25T09:07:24.763Z,971.17
2016-08-25T09:08:24.749Z,971.15
2016-08-25T09:09:24.737Z,971.15
2016-08-25T09:10:24.723Z,971.15
2016-08-25T09:11:24.712Z,971.12
2016-08-25T09:12:24.699Z,971.13
2016-08-25T09:13:24.686Z,971.16
2016-08-25T09:14:24.675Z,971.14
2016-08-25T09:15:24.662Z,971.15
2016-08-25T09:16:24.650Z,971.15
2016-08-25T09:17:24.637Z,971.17
2016-08-25T09:18:24.625Z,971.19
2016-08-25T09:19:24.612Z,971.22
2016-08-25T09:20:24.611Z,971.27
2016-08-25T09:21:24.589Z,971.25
2016-08-25T09:22:24.576Z,971.32
2016-08-25T09:23:24.565Z,971.35
2016-08-25T09:24:24.552Z,971.42
2016-08-25T09:25:24.540Z,971.45
2016-08-25T09:26:24.529Z,971.56
2016-08-25T09:27:24.518Z,971.6
2016-08-25T09:28:24.505Z,971.65
2016-08-25T09:29:24.496Z,971.78
2016-08-25T09:30:24.489Z,971.78
2016-08-25T09:31:24.472Z,971.82
2016-08-25T09:32:24.462Z,971.85
2016-08-25T09:33:24.449Z,971.96
2016-08-25T09:34:24.444Z,972.09
2016-08-25T09:35:24.427Z,972.15
2016-08-25T09:36:24.416Z,972.21
2016-08-25T09:37:24.407Z,972.21
2016-08-25T09:38:24.396Z,972.32
2016-08-25T09:39:24.383Z,972.35
2016-08-25T09:40:24.382Z,972.36
2016-08-25T09:41:24.365Z,972.4
2016-08-25T09:42:24.348Z,972.39
2016-08-25T09:43:24.338Z,972.31
2016-08-25T09:44:24.326Z,972.24
2016-08-25T09:45:24.317Z,972.07
2016-08-25T09:46:24.304Z,971.37
2016-08-25T09:47:24.293Z,970.69
2016-08-25T09:48:24.283Z,970.64
2016-08-25T09:49:24.272Z,970.52
2016-08-25T09:50:24.261Z,970.51
2016-08-25T09:51:24.252Z,970.48
2016-08-25T09:52:24.243Z,970.44
2016-08-25T09:53:24.228Z,970.41
2016-08-25T09:54:24.218Z,970.39
2016-08-25T09:55:24.230Z,970.37
2016-08-25T09:56:24.197Z,970.36
2016-08-25T09:57:24.185Z,970.34
2016-08-25T09:58:24.174Z,970.25
2016-08-25T09:59:24.163Z,970.22
2016-08-25T10:00:24.154Z,970.2
2016-08-25T10:01:24.143Z,970.21
2016-08-25T10:02:24.135Z,970.15
2016-08-25T10:03:24.123Z,970.13
2016-08-25T10:04:24.112Z,970.2
2016-08-25T10:05:24.103Z,970.19
2016-08-25T10:06:24.092Z,970.31
2016-08-25T10:07:24.083Z,970.45
2016-08-25T10:08:24.071Z,971.13
2016-08-25T10:09:24.061Z,971.66
2016-08-25T10:10:24.051Z,971.73
2016-08-25T10:11:24.049Z,971.75
2016-08-25T10:12:24.031Z,971.72
2016-08-25T10:13:24.021Z,971.69
2016-08-25T10:14:24.012Z,971.57
2016-08-25T10:15:24.003Z,971.58
2016-08-25T10:16:23.992Z,971.55
2016-08-25T10:17:23.983Z,971.54
2016-08-25T10:18:23.974Z,971.56
2016-08-25T10:19:23.961Z,971.57
2016-08-25T10:20:23.953Z,971.57
2016-08-25T10:21:24.159Z,971.53
2016-08-25T10:22:23.934Z,971.54
2016-08-25T10:23:23.922Z,971.62
2016-08-25T10:24:23.915Z,971.65
2016-08-25T10:25:23.904Z,971.84
2016-08-25T10:26:23.894Z,971.98
2016-08-25T10:27:23.885Z,972.15
2016-08-25T10:28:23.876Z,972.36
2016-08-25T10:29:23.864Z,972.55
2016-08-25T10:30:23.855Z,972.65
2016-08-25T10:31:23.846Z,972.71
2016-08-25T10:32:23.835Z,972.83
2016-08-25T10:33:23.826Z,972.94
2016-08-25T10:34:23.815Z,973.02
2016-08-25T10:35:23.804Z,972.96
2016-08-25T10:36:23.794Z,973.17
2016-08-25T10:37:23.784Z,973.16
2016-08-25T10:38:23.777Z,973.12
2016-08-25T10:39:23.761Z,973.24
2016-08-25T10:40:23.753Z,973.2
2016-08-25T10:41:23.742Z,973.21
2016-08-25T10:42:23.738Z,973.16
2016-08-25T10:43:23.722Z,973.18
2016-08-25T10:44:23.711Z,973.14
2016-08-25T10:45:23.699Z,972.91
2016-08-25T10:46:23.689Z,972.79
2016-08-25T10:47:23.682Z,972.71
2016-08-25T10:48:23.666Z,972.47
2016-08-25T10:49:23.656Z,971.58
2016-08-25T10:50:23.647Z,970.8
2016-08-25T10:51:23.633Z,970.72
2016-08-25T10:52:23.621Z,970.66
2016-08-25T10:53:23.608Z,970.6
2016-08-25T10:54:23.597Z,970.58
2016-08-25T10:55:23.582Z,970.53
2016-08-25T10:56:23.570Z,970.41
2016-08-25T10:57:23.557Z,970.37
2016-08-25T10:58:23.547Z,970.31
2016-08-25T10:59:23.532Z,970.33
2016-08-25T11:00:23.518Z,970.24
2016-08-25T11:01:23.508Z,970.23
2016-08-25T11:02:23.494Z,970.23
2016-08-25T11:03:23.480Z,970.19
2016-08-25T11:04:23.467Z,970.12
2016-08-25T11:05:23.454Z,970.35
2016-08-25T11:06:23.441Z,970.67
2016-08-25T11:07:23.426Z,970.62
2016-08-25T11:08:23.412Z,970.56
2016-08-25T11:09:23.399Z,970.51
2016-08-25T11:10:23.384Z,970.55
2016-08-25T11:11:23.374Z,970.52
2016-08-25T11:12:23.356Z,970.5
2016-08-25T11:13:23.343Z,970.39
2016-08-25T11:14:23.325Z,970.27
2016-08-25T11:15:23.313Z,970.12
2016-08-25T11:16:23.306Z,969.99
2016-08-25T11:17:23.279Z,969.9
2016-08-25T11:18:23.263Z,969.75
2016-08-25T11:19:23.246Z,969.74
2016-08-25T11:20:23.231Z,969.61
2016-08-25T11:21:23.216Z,969.6
2016-08-25T11:22:23.199Z,969.53
2016-08-25T11:23:23.182Z,969.52
2016-08-25T11:24:23.168Z,969.48
2016-08-25T11:25:23.147Z,969.46
2016-08-25T11:26:23.131Z,969.43
2016-08-25T11:27:23.111Z,969.4
2016-08-25T11:28:23.094Z,969.31
2016-08-25T11:29:23.077Z,969.26
2016-08-25T11:30:23.057Z,969.28
2016-08-25T11:31:23.048Z,969.26
2016-08-25T11:32:23.020Z,969.24
2016-08-25T11:33:23.003Z,969.19
2016-08-25T11:34:22.986Z,969.2
2016-08-25T11:35:22.965Z,969.14
2016-08-25T11:36:22.945Z,969.16
2016-08-25T11:37:22.927Z,969.17
2016-08-25T11:38:22.907Z,969.17
2016-08-25T11:39:22.884Z,969.21
2016-08-25T11:40:22.866Z,969.18
2016-08-25T11:41:22.846Z,969.16
2016-08-25T11:42:22.826Z,969.16
2016-08-25T11:43:22.804Z,969.09
2016-08-25T11:44:22.783Z,969.15
2016-08-25T11:45:22.763Z,969.12
2016-08-25T11:46:22.741Z,969.12
2016-08-25T11:47:22.721Z,969.09
2016-08-25T11:48:22.698Z,969.11
2016-08-25T11:49:22.677Z,969.11
2016-08-25T11:50:22.654Z,969.05
2016-08-25T11:51:22.637Z,969.06
2016-08-25T11:52:22.616Z,969.03
2016-08-25T11:53:22.591Z,969.03
2016-08-25T11:54:22.568Z,969.02
2016-08-25T11:55:22.547Z,969.01
2016-08-25T11:56:22.522Z,969
2016-08-25T11:57:22.500Z,969.01
2016-08-25T11:58:22.479Z,969.03
2016-08-25T11:59:22.456Z,969.01
2016-08-25T12:00:22.433Z,969.04
2016-08-25T12:01:22.411Z,969.03
2016-08-25T12:02:22.390Z,969
2016-08-25T12:03:22.380Z,969
2016-08-25T12:04:22.344Z,969.02
2016-08-25T12:05:22.323Z,969.02
2016-08-25T12:06:22.297Z,969.05
2016-08-25T12:07:22.281Z,969.06
2016-08-25T12:08:22.254Z,969.04
2016-08-25T12:09:22.230Z,969.05
2016-08-25T12:10:22.207Z,969.02
2016-08-25T12:11:22.183Z,969.03
2016-08-25T12:12:22.160Z,969.02
2016-08-25T12:13:22.135Z,969
2016-08-25T12:14:22.113Z,968.97
2016-08-25T12:15:22.089Z,969.01
2016-08-25T12:16:22.066Z,968.97
2016-08-25T12:17:22.045Z,968.97
2016-08-25T12:18:22.019Z,968.97
2016-08-25T12:19:21.995Z,968.97
2016-08-25T12:20:21.971Z,968.94
2016-08-25T12:21:21.949Z,968.96
2016-08-25T12:22:21.925Z,968.97
2016-08-25T12:23:21.901Z,968.96
2016-08-25T12:24:21.878Z,968.9
2016-08-25T12:25:21.855Z,968.91
2016-08-25T12:26:21.834Z,968.9
2016-08-25T12:27:21.808Z,968.87
2016-08-25T12:28:21.785Z,968.85
2016-08-25T12:29:21.761Z,968.83
2016-08-25T12:30:21.736Z,968.8
2016-08-25T12:31:21.714Z,968.83